sensor_id;sensor_type;location;lat;lon;timestamp;P1;durP1;ratioP1;P2;durP2;ratioP2
70929;SDS011;58588;48.102;19.682;2023-03-23T00:02:02;21.48;;;9.05;;
70929;SDS011;58588;48.102;19.682;2023-03-23T00:05:05;20.08;;;8.75;;
70929;SDS011;58588;48.102;19.682;2023-03-23T00:08:08;23.93;;;10.20;;
70929;SDS011;58588;48.102;19.682;2023-03-23T00:11:15;23.03;;;9.87;;
70929;SDS011;58588;48.102;19.682;2023-03-23T00:14:20;23.30;;;10.95;;
70929;SDS011;58588;48.102;19.682;2023-03-23T00:17:22;24.50;;;10.48;;
70929;SDS011;58588;48.102;19.682;2023-03-23T00:20:25;25.38;;;9.95;;
70929;SDS011;58588;48.102;19.682;2023-03-23T00:23:29;24.20;;;10.07;;
70929;SDS011;58588;48.102;19.682;2023-03-23T00:26:33;22.17;;;10.17;;
70929;SDS011;58588;48.102;19.682;2023-03-23T00:29:36;42.05;;;16.65;;
70929;SDS011;58588;48.102;19.682;2023-03-23T00:32:38;29.08;;;12.10;;
70929;SDS011;58588;48.102;19.682;2023-03-23T00:35:41;30.27;;;14.07;;
70929;SDS011;58588;48.102;19.682;2023-03-23T00:38:44;29.90;;;13.90;;
70929;SDS011;58588;48.102;19.682;2023-03-23T00:41:49;23.03;;;10.50;;
70929;SDS011;58588;48.102;19.682;2023-03-23T00:44:52;24.27;;;9.77;;
70929;SDS011;58588;48.102;19.682;2023-03-23T00:48:00;23.77;;;10.18;;
70929;SDS011;58588;48.102;19.682;2023-03-23T00:51:05;21.00;;;9.27;;
70929;SDS011;58588;48.102;19.682;2023-03-23T00:54:12;23.40;;;9.27;;
70929;SDS011;58588;48.102;19.682;2023-03-23T00:57:15;18.45;;;7.80;;
70929;SDS011;58588;48.102;19.682;2023-03-23T01:00:18;21.65;;;7.70;;
70929;SDS011;58588;48.102;19.682;2023-03-23T01:03:20;20.08;;;7.07;;
70929;SDS011;58588;48.102;19.682;2023-03-23T01:06:26;21.60;;;8.60;;
70929;SDS011;58588;48.102;19.682;2023-03-23T01:09:30;19.30;;;7.90;;
70929;SDS011;58588;48.102;19.682;2023-03-23T01:12:35;18.37;;;7.97;;
70929;SDS011;58588;48.102;19.682;2023-03-23T01:15:37;20.35;;;8.32;;
70929;SDS011;58588;48.102;19.682;2023-03-23T01:18:40;18.17;;;8.15;;
70929;SDS011;58588;48.102;19.682;2023-03-23T01:21:42;20.00;;;8.25;;
70929;SDS011;58588;48.102;19.682;2023-03-23T01:24:44;21.63;;;9.10;;
70929;SDS011;58588;48.102;19.682;2023-03-23T01:27:48;19.63;;;8.90;;
70929;SDS011;58588;48.102;19.682;2023-03-23T01:30:50;19.70;;;7.57;;
70929;SDS011;58588;48.102;19.682;2023-03-23T01:33:52;18.70;;;7.30;;
70929;SDS011;58588;48.102;19.682;2023-03-23T01:36:56;17.75;;;7.15;;
70929;SDS011;58588;48.102;19.682;2023-03-23T01:39:58;20.13;;;7.13;;
70929;SDS011;58588;48.102;19.682;2023-03-23T01:43:02;15.90;;;7.10;;
70929;SDS011;58588;48.102;19.682;2023-03-23T01:46:04;17.08;;;7.10;;
70929;SDS011;58588;48.102;19.682;2023-03-23T01:49:07;18.85;;;8.05;;
70929;SDS011;58588;48.102;19.682;2023-03-23T01:52:13;39.65;;;17.58;;
70929;SDS011;58588;48.102;19.682;2023-03-23T01:55:21;32.43;;;14.00;;
70929;SDS011;58588;48.102;19.682;2023-03-23T01:58:29;28.50;;;12.87;;
70929;SDS011;58588;48.102;19.682;2023-03-23T02:01:34;19.38;;;8.68;;
70929;SDS011;58588;48.102;19.682;2023-03-23T02:04:39;29.17;;;13.25;;
70929;SDS011;58588;48.102;19.682;2023-03-23T02:07:42;19.73;;;7.50;;
70929;SDS011;58588;48.102;19.682;2023-03-23T02:10:45;20.30;;;8.40;;
70929;SDS011;58588;48.102;19.682;2023-03-23T02:13:49;20.90;;;8.95;;
70929;SDS011;58588;48.102;19.682;2023-03-23T02:16:53;17.90;;;7.38;;
70929;SDS011;58588;48.102;19.682;2023-03-23T02:23:38;18.23;;;7.55;;
70929;SDS011;58588;48.102;19.682;2023-03-23T02:27:00;20.67;;;7.83;;
70929;SDS011;58588;48.102;19.682;2023-03-23T02:30:13;20.08;;;8.98;;
70929;SDS011;58588;48.102;19.682;2023-03-23T02:33:27;21.00;;;8.63;;
70929;SDS011;58588;48.102;19.682;2023-03-23T02:36:38;19.98;;;8.77;;
70929;SDS011;58588;48.102;19.682;2023-03-23T02:39:44;19.75;;;8.85;;
70929;SDS011;58588;48.102;19.682;2023-03-23T02:42:53;20.57;;;8.97;;
70929;SDS011;58588;48.102;19.682;2023-03-23T02:45:58;20.67;;;8.25;;
70929;SDS011;58588;48.102;19.682;2023-03-23T02:49:03;19.33;;;7.93;;
70929;SDS011;58588;48.102;19.682;2023-03-23T02:52:11;19.55;;;8.65;;
70929;SDS011;58588;48.102;19.682;2023-03-23T02:58:21;24.50;;;7.60;;
70929;SDS011;58588;48.102;19.682;2023-03-23T03:04:54;18.60;;;8.10;;
70929;SDS011;58588;48.102;19.682;2023-03-23T03:08:09;20.67;;;8.48;;
70929;SDS011;58588;48.102;19.682;2023-03-23T03:11:19;17.38;;;7.38;;
70929;SDS011;58588;48.102;19.682;2023-03-23T03:14:26;17.60;;;6.50;;
70929;SDS011;58588;48.102;19.682;2023-03-23T03:17:32;16.20;;;6.32;;
70929;SDS011;58588;48.102;19.682;2023-03-23T03:20:43;17.45;;;6.97;;
70929;SDS011;58588;48.102;19.682;2023-03-23T03:23:47;16.00;;;6.32;;
70929;SDS011;58588;48.102;19.682;2023-03-23T03:26:51;17.30;;;6.82;;
70929;SDS011;58588;48.102;19.682;2023-03-23T03:29:58;17.50;;;7.00;;
70929;SDS011;58588;48.102;19.682;2023-03-23T03:33:03;19.42;;;7.90;;
70929;SDS011;58588;48.102;19.682;2023-03-23T03:36:13;17.45;;;6.95;;
70929;SDS011;58588;48.102;19.682;2023-03-23T03:39:17;22.42;;;8.20;;
70929;SDS011;58588;48.102;19.682;2023-03-23T03:42:21;21.45;;;8.32;;
70929;SDS011;58588;48.102;19.682;2023-03-23T03:45:23;23.50;;;8.47;;
70929;SDS011;58588;48.102;19.682;2023-03-23T03:48:25;24.85;;;9.73;;
70929;SDS011;58588;48.102;19.682;2023-03-23T03:51:29;17.73;;;7.05;;
70929;SDS011;58588;48.102;19.682;2023-03-23T03:54:32;23.20;;;7.50;;
70929;SDS011;58588;48.102;19.682;2023-03-23T03:57:34;19.77;;;7.05;;
70929;SDS011;58588;48.102;19.682;2023-03-23T04:00:36;22.80;;;8.87;;
70929;SDS011;58588;48.102;19.682;2023-03-23T04:03:39;24.58;;;10.73;;
70929;SDS011;58588;48.102;19.682;2023-03-23T04:06:42;24.52;;;10.20;;
70929;SDS011;58588;48.102;19.682;2023-03-23T04:09:45;29.67;;;10.63;;
70929;SDS011;58588;48.102;19.682;2023-03-23T04:12:48;26.92;;;11.63;;
70929;SDS011;58588;48.102;19.682;2023-03-23T04:15:50;26.63;;;9.77;;
70929;SDS011;58588;48.102;19.682;2023-03-23T04:18:52;27.85;;;10.40;;
70929;SDS011;58588;48.102;19.682;2023-03-23T04:21:57;25.30;;;9.43;;
70929;SDS011;58588;48.102;19.682;2023-03-23T04:25:00;21.75;;;8.50;;
70929;SDS011;58588;48.102;19.682;2023-03-23T04:28:06;16.15;;;6.20;;
70929;SDS011;58588;48.102;19.682;2023-03-23T04:31:10;20.00;;;7.77;;
70929;SDS011;58588;48.102;19.682;2023-03-23T04:34:12;18.73;;;6.07;;
70929;SDS011;58588;48.102;19.682;2023-03-23T04:37:16;19.20;;;6.78;;
70929;SDS011;58588;48.102;19.682;2023-03-23T04:40:18;26.67;;;10.85;;
70929;SDS011;58588;48.102;19.682;2023-03-23T04:43:22;22.75;;;10.70;;
70929;SDS011;58588;48.102;19.682;2023-03-23T04:46:25;22.47;;;9.60;;
70929;SDS011;58588;48.102;19.682;2023-03-23T04:49:30;16.30;;;6.80;;
70929;SDS011;58588;48.102;19.682;2023-03-23T04:52:33;22.05;;;7.68;;
70929;SDS011;58588;48.102;19.682;2023-03-23T04:55:37;20.85;;;8.27;;
70929;SDS011;58588;48.102;19.682;2023-03-23T04:58:41;16.48;;;6.60;;
70929;SDS011;58588;48.102;19.682;2023-03-23T05:01:44;17.67;;;7.07;;
70929;SDS011;58588;48.102;19.682;2023-03-23T05:04:46;18.25;;;7.07;;
70929;SDS011;58588;48.102;19.682;2023-03-23T05:07:50;16.25;;;6.85;;
70929;SDS011;58588;48.102;19.682;2023-03-23T05:10:53;18.27;;;6.78;;
70929;SDS011;58588;48.102;19.682;2023-03-23T05:13:57;20.60;;;7.85;;
70929;SDS011;58588;48.102;19.682;2023-03-23T05:16:59;22.03;;;8.80;;
70929;SDS011;58588;48.102;19.682;2023-03-23T05:20:02;21.77;;;8.88;;
70929;SDS011;58588;48.102;19.682;2023-03-23T05:23:09;27.20;;;10.45;;
70929;SDS011;58588;48.102;19.682;2023-03-23T05:26:12;23.50;;;8.98;;
70929;SDS011;58588;48.102;19.682;2023-03-23T05:29:15;23.00;;;9.55;;
70929;SDS011;58588;48.102;19.682;2023-03-23T05:32:17;18.17;;;6.87;;
70929;SDS011;58588;48.102;19.682;2023-03-23T05:35:20;17.92;;;7.28;;
70929;SDS011;58588;48.102;19.682;2023-03-23T05:38:24;20.27;;;8.00;;
70929;SDS011;58588;48.102;19.682;2023-03-23T05:41:26;20.70;;;8.82;;
70929;SDS011;58588;48.102;19.682;2023-03-23T05:44:28;20.20;;;8.27;;
70929;SDS011;58588;48.102;19.682;2023-03-23T05:47:30;24.77;;;8.67;;
70929;SDS011;58588;48.102;19.682;2023-03-23T05:50:33;24.70;;;11.35;;
70929;SDS011;58588;48.102;19.682;2023-03-23T05:53:36;27.10;;;12.48;;
70929;SDS011;58588;48.102;19.682;2023-03-23T05:56:38;30.40;;;13.25;;
70929;SDS011;58588;48.102;19.682;2023-03-23T05:59:41;25.13;;;11.80;;
70929;SDS011;58588;48.102;19.682;2023-03-23T06:02:43;24.53;;;10.10;;
70929;SDS011;58588;48.102;19.682;2023-03-23T06:05:45;33.97;;;13.48;;
70929;SDS011;58588;48.102;19.682;2023-03-23T06:08:49;65.20;;;22.95;;
70929;SDS011;58588;48.102;19.682;2023-03-23T06:11:51;76.28;;;25.98;;
70929;SDS011;58588;48.102;19.682;2023-03-23T06:14:53;82.90;;;28.85;;
70929;SDS011;58588;48.102;19.682;2023-03-23T06:17:57;63.93;;;23.77;;
70929;SDS011;58588;48.102;19.682;2023-03-23T06:20:59;45.63;;;17.93;;
70929;SDS011;58588;48.102;19.682;2023-03-23T06:24:03;32.60;;;13.30;;
70929;SDS011;58588;48.102;19.682;2023-03-23T06:27:06;30.25;;;12.60;;
70929;SDS011;58588;48.102;19.682;2023-03-23T06:30:09;32.35;;;13.57;;
70929;SDS011;58588;48.102;19.682;2023-03-23T06:33:12;35.10;;;14.20;;
70929;SDS011;58588;48.102;19.682;2023-03-23T06:36:14;31.17;;;14.17;;
70929;SDS011;58588;48.102;19.682;2023-03-23T06:39:18;33.72;;;15.35;;
70929;SDS011;58588;48.102;19.682;2023-03-23T06:42:21;32.95;;;14.98;;
70929;SDS011;58588;48.102;19.682;2023-03-23T06:45:27;30.15;;;14.25;;
70929;SDS011;58588;48.102;19.682;2023-03-23T06:48:30;27.27;;;12.90;;
70929;SDS011;58588;48.102;19.682;2023-03-23T06:51:32;35.60;;;16.27;;
70929;SDS011;58588;48.102;19.682;2023-03-23T06:54:35;50.53;;;24.27;;
70929;SDS011;58588;48.102;19.682;2023-03-23T06:57:37;68.32;;;31.48;;
70929;SDS011;58588;48.102;19.682;2023-03-23T07:00:39;52.30;;;26.58;;
70929;SDS011;58588;48.102;19.682;2023-03-23T07:03:42;52.23;;;24.17;;
70929;SDS011;58588;48.102;19.682;2023-03-23T07:06:44;48.63;;;22.57;;
70929;SDS011;58588;48.102;19.682;2023-03-23T07:09:49;46.05;;;21.40;;
70929;SDS011;58588;48.102;19.682;2023-03-23T07:12:51;41.10;;;20.80;;
70929;SDS011;58588;48.102;19.682;2023-03-23T07:15:53;39.95;;;18.35;;
70929;SDS011;58588;48.102;19.682;2023-03-23T07:18:55;48.87;;;25.47;;
70929;SDS011;58588;48.102;19.682;2023-03-23T07:21:57;50.50;;;25.83;;
70929;SDS011;58588;48.102;19.682;2023-03-23T07:25:01;45.35;;;22.42;;
70929;SDS011;58588;48.102;19.682;2023-03-23T07:28:03;45.25;;;20.80;;
70929;SDS011;58588;48.102;19.682;2023-03-23T07:31:06;28.25;;;14.43;;
70929;SDS011;58588;48.102;19.682;2023-03-23T07:34:09;32.47;;;16.30;;
70929;SDS011;58588;48.102;19.682;2023-03-23T07:37:11;30.07;;;15.53;;
70929;SDS011;58588;48.102;19.682;2023-03-23T07:40:15;38.00;;;19.35;;
70929;SDS011;58588;48.102;19.682;2023-03-23T07:43:18;33.97;;;16.45;;
70929;SDS011;58588;48.102;19.682;2023-03-23T07:46:20;29.30;;;14.07;;
70929;SDS011;58588;48.102;19.682;2023-03-23T07:49:22;31.13;;;15.80;;
70929;SDS011;58588;48.102;19.682;2023-03-23T07:52:25;30.13;;;15.77;;
70929;SDS011;58588;48.102;19.682;2023-03-23T07:55:28;30.15;;;16.45;;
70929;SDS011;58588;48.102;19.682;2023-03-23T07:58:30;29.15;;;14.50;;
70929;SDS011;58588;48.102;19.682;2023-03-23T08:01:33;28.45;;;15.02;;
70929;SDS011;58588;48.102;19.682;2023-03-23T08:04:35;25.13;;;13.63;;
70929;SDS011;58588;48.102;19.682;2023-03-23T08:07:38;24.90;;;13.70;;
70929;SDS011;58588;48.102;19.682;2023-03-23T08:10:42;23.42;;;12.25;;
70929;SDS011;58588;48.102;19.682;2023-03-23T08:13:44;19.73;;;9.65;;
70929;SDS011;58588;48.102;19.682;2023-03-23T08:16:46;20.67;;;9.70;;
70929;SDS011;58588;48.102;19.682;2023-03-23T08:19:48;17.73;;;9.40;;
70929;SDS011;58588;48.102;19.682;2023-03-23T08:22:53;15.30;;;7.70;;
70929;SDS011;58588;48.102;19.682;2023-03-23T08:25:58;14.60;;;7.38;;
70929;SDS011;58588;48.102;19.682;2023-03-23T08:29:01;13.68;;;6.72;;
70929;SDS011;58588;48.102;19.682;2023-03-23T08:32:03;13.18;;;7.00;;
70929;SDS011;58588;48.102;19.682;2023-03-23T08:35:06;12.63;;;6.43;;
70929;SDS011;58588;48.102;19.682;2023-03-23T08:38:10;12.23;;;5.90;;
70929;SDS011;58588;48.102;19.682;2023-03-23T08:41:14;11.98;;;5.97;;
70929;SDS011;58588;48.102;19.682;2023-03-23T08:44:16;12.45;;;6.28;;
70929;SDS011;58588;48.102;19.682;2023-03-23T08:47:19;12.57;;;5.97;;
70929;SDS011;58588;48.102;19.682;2023-03-23T08:50:22;11.37;;;4.63;;
70929;SDS011;58588;48.102;19.682;2023-03-23T08:53:25;11.27;;;5.00;;
70929;SDS011;58588;48.102;19.682;2023-03-23T08:56:31;11.20;;;4.53;;
70929;SDS011;58588;48.102;19.682;2023-03-23T08:59:33;10.50;;;3.83;;
70929;SDS011;58588;48.102;19.682;2023-03-23T09:02:36;8.20;;;3.78;;
70929;SDS011;58588;48.102;19.682;2023-03-23T09:05:38;10.32;;;4.35;;
70929;SDS011;58588;48.102;19.682;2023-03-23T09:08:45;9.03;;;4.13;;
70929;SDS011;58588;48.102;19.682;2023-03-23T09:11:50;11.63;;;3.88;;
70929;SDS011;58588;48.102;19.682;2023-03-23T09:14:52;9.25;;;3.88;;
70929;SDS011;58588;48.102;19.682;2023-03-23T09:17:54;11.32;;;4.28;;
70929;SDS011;58588;48.102;19.682;2023-03-23T09:20:56;9.60;;;4.20;;
70929;SDS011;58588;48.102;19.682;2023-03-23T09:23:59;9.77;;;4.03;;
70929;SDS011;58588;48.102;19.682;2023-03-23T09:27:03;8.50;;;3.75;;
70929;SDS011;58588;48.102;19.682;2023-03-23T09:30:06;9.88;;;3.92;;
70929;SDS011;58588;48.102;19.682;2023-03-23T09:33:10;8.73;;;3.80;;
70929;SDS011;58588;48.102;19.682;2023-03-23T09:36:13;8.30;;;4.00;;
70929;SDS011;58588;48.102;19.682;2023-03-23T09:39:17;9.10;;;3.57;;
70929;SDS011;58588;48.102;19.682;2023-03-23T09:42:36;9.05;;;4.10;;
70929;SDS011;58588;48.102;19.682;2023-03-23T09:45:49;8.75;;;3.40;;
70929;SDS011;58588;48.102;19.682;2023-03-23T09:48:58;9.35;;;3.58;;
70929;SDS011;58588;48.102;19.682;2023-03-23T09:52:04;7.68;;;3.30;;
70929;SDS011;58588;48.102;19.682;2023-03-23T09:55:12;8.57;;;3.40;;
70929;SDS011;58588;48.102;19.682;2023-03-23T09:58:18;9.25;;;3.30;;
70929;SDS011;58588;48.102;19.682;2023-03-23T10:01:27;7.00;;;2.60;;
70929;SDS011;58588;48.102;19.682;2023-03-23T10:04:34;7.65;;;2.55;;
70929;SDS011;58588;48.102;19.682;2023-03-23T10:07:41;6.53;;;2.50;;
70929;SDS011;58588;48.102;19.682;2023-03-23T10:10:48;9.53;;;3.63;;
70929;SDS011;58588;48.102;19.682;2023-03-23T10:14:10;7.85;;;2.92;;
70929;SDS011;58588;48.102;19.682;2023-03-23T10:17:24;8.02;;;2.72;;
70929;SDS011;58588;48.102;19.682;2023-03-23T10:20:36;7.70;;;2.70;;
70929;SDS011;58588;48.102;19.682;2023-03-23T10:23:49;9.27;;;2.28;;
70929;SDS011;58588;48.102;19.682;2023-03-23T10:26:57;5.97;;;2.27;;
70929;SDS011;58588;48.102;19.682;2023-03-23T10:30:13;8.70;;;2.67;;
70929;SDS011;58588;48.102;19.682;2023-03-23T10:33:22;6.90;;;2.70;;
70929;SDS011;58588;48.102;19.682;2023-03-23T10:36:27;9.32;;;3.22;;
70929;SDS011;58588;48.102;19.682;2023-03-23T10:39:33;8.70;;;2.85;;
70929;SDS011;58588;48.102;19.682;2023-03-23T10:42:44;7.07;;;2.87;;
70929;SDS011;58588;48.102;19.682;2023-03-23T10:45:50;9.65;;;3.10;;
70929;SDS011;58588;48.102;19.682;2023-03-23T10:48:56;7.68;;;2.80;;
70929;SDS011;58588;48.102;19.682;2023-03-23T10:52:03;7.28;;;3.05;;
70929;SDS011;58588;48.102;19.682;2023-03-23T10:55:13;8.98;;;3.30;;
70929;SDS011;58588;48.102;19.682;2023-03-23T10:58:22;10.50;;;3.50;;
70929;SDS011;58588;48.102;19.682;2023-03-23T11:01:30;7.20;;;3.17;;
70929;SDS011;58588;48.102;19.682;2023-03-23T11:04:35;9.25;;;3.85;;
70929;SDS011;58588;48.102;19.682;2023-03-23T11:07:37;11.68;;;3.85;;
70929;SDS011;58588;48.102;19.682;2023-03-23T11:10:40;9.45;;;3.65;;
70929;SDS011;58588;48.102;19.682;2023-03-23T11:13:49;8.57;;;4.33;;
70929;SDS011;58588;48.102;19.682;2023-03-23T11:16:59;11.20;;;4.63;;
70929;SDS011;58588;48.102;19.682;2023-03-23T11:20:09;11.85;;;4.28;;
70929;SDS011;58588;48.102;19.682;2023-03-23T11:23:18;12.38;;;4.65;;
70929;SDS011;58588;48.102;19.682;2023-03-23T11:26:23;11.75;;;5.35;;
70929;SDS011;58588;48.102;19.682;2023-03-23T11:29:28;15.77;;;4.77;;
70929;SDS011;58588;48.102;19.682;2023-03-23T11:32:33;10.75;;;4.93;;
70929;SDS011;58588;48.102;19.682;2023-03-23T11:35:36;9.18;;;4.80;;
70929;SDS011;58588;48.102;19.682;2023-03-23T11:38:38;11.23;;;5.32;;
70929;SDS011;58588;48.102;19.682;2023-03-23T11:41:40;11.07;;;5.22;;
70929;SDS011;58588;48.102;19.682;2023-03-23T11:44:43;11.17;;;5.40;;
70929;SDS011;58588;48.102;19.682;2023-03-23T11:47:54;10.95;;;5.15;;
70929;SDS011;58588;48.102;19.682;2023-03-23T11:51:03;11.95;;;5.50;;
70929;SDS011;58588;48.102;19.682;2023-03-23T11:54:09;11.57;;;4.93;;
70929;SDS011;58588;48.102;19.682;2023-03-23T11:57:18;11.95;;;5.30;;
70929;SDS011;58588;48.102;19.682;2023-03-23T12:00:20;9.77;;;4.80;;
70929;SDS011;58588;48.102;19.682;2023-03-23T12:03:29;9.93;;;4.93;;
70929;SDS011;58588;48.102;19.682;2023-03-23T12:06:48;10.57;;;5.18;;
70929;SDS011;58588;48.102;19.682;2023-03-23T12:09:58;9.27;;;4.47;;
70929;SDS011;58588;48.102;19.682;2023-03-23T12:13:16;14.38;;;5.07;;
70929;SDS011;58588;48.102;19.682;2023-03-23T12:16:32;9.10;;;4.17;;
70929;SDS011;58588;48.102;19.682;2023-03-23T12:19:46;8.45;;;4.22;;
70929;SDS011;58588;48.102;19.682;2023-03-23T12:22:58;10.35;;;4.30;;
70929;SDS011;58588;48.102;19.682;2023-03-23T12:26:19;10.73;;;4.68;;
70929;SDS011;58588;48.102;19.682;2023-03-23T12:29:26;10.13;;;3.85;;
70929;SDS011;58588;48.102;19.682;2023-03-23T12:32:43;8.47;;;3.80;;
70929;SDS011;58588;48.102;19.682;2023-03-23T12:36:06;8.98;;;4.20;;
70929;SDS011;58588;48.102;19.682;2023-03-23T12:39:30;12.32;;;3.90;;
70929;SDS011;58588;48.102;19.682;2023-03-23T12:42:46;8.18;;;3.70;;
70929;SDS011;58588;48.102;19.682;2023-03-23T12:46:07;8.43;;;3.40;;
70929;SDS011;58588;48.102;19.682;2023-03-23T12:49:22;8.30;;;3.67;;
70929;SDS011;58588;48.102;19.682;2023-03-23T12:52:30;8.25;;;4.00;;
70929;SDS011;58588;48.102;19.682;2023-03-23T12:55:40;8.63;;;4.22;;
70929;SDS011;58588;48.102;19.682;2023-03-23T12:58:47;8.85;;;3.80;;
70929;SDS011;58588;48.102;19.682;2023-03-23T13:01:54;7.85;;;3.45;;
70929;SDS011;58588;48.102;19.682;2023-03-23T13:05:00;9.20;;;3.50;;
70929;SDS011;58588;48.102;19.682;2023-03-23T13:08:11;9.80;;;3.58;;
70929;SDS011;58588;48.102;19.682;2023-03-23T13:11:18;6.85;;;3.20;;
70929;SDS011;58588;48.102;19.682;2023-03-23T13:14:29;9.77;;;3.58;;
70929;SDS011;58588;48.102;19.682;2023-03-23T13:17:43;7.63;;;2.90;;
70929;SDS011;58588;48.102;19.682;2023-03-23T13:20:54;8.33;;;2.93;;
70929;SDS011;58588;48.102;19.682;2023-03-23T13:24:04;8.35;;;3.45;;
70929;SDS011;58588;48.102;19.682;2023-03-23T13:27:08;8.13;;;3.00;;
70929;SDS011;58588;48.102;19.682;2023-03-23T13:30:18;7.57;;;2.80;;
70929;SDS011;58588;48.102;19.682;2023-03-23T13:33:24;6.38;;;2.50;;
70929;SDS011;58588;48.102;19.682;2023-03-23T13:36:28;6.83;;;2.60;;
70929;SDS011;58588;48.102;19.682;2023-03-23T13:39:35;5.60;;;2.33;;
70929;SDS011;58588;48.102;19.682;2023-03-23T13:42:47;6.05;;;2.42;;
70929;SDS011;58588;48.102;19.682;2023-03-23T13:45:51;8.25;;;2.10;;
70929;SDS011;58588;48.102;19.682;2023-03-23T13:52:24;5.47;;;2.00;;
70929;SDS011;58588;48.102;19.682;2023-03-23T13:55:42;6.05;;;2.40;;
70929;SDS011;58588;48.102;19.682;2023-03-23T13:59:04;5.70;;;2.00;;
70929;SDS011;58588;48.102;19.682;2023-03-23T14:05:34;6.68;;;2.50;;
70929;SDS011;58588;48.102;19.682;2023-03-23T14:08:40;5.57;;;1.90;;
70929;SDS011;58588;48.102;19.682;2023-03-23T14:11:47;7.80;;;2.20;;
70929;SDS011;58588;48.102;19.682;2023-03-23T14:14:56;6.40;;;2.28;;
70929;SDS011;58588;48.102;19.682;2023-03-23T14:18:04;5.57;;;2.00;;
70929;SDS011;58588;48.102;19.682;2023-03-23T14:21:13;7.90;;;2.30;;
70929;SDS011;58588;48.102;19.682;2023-03-23T14:24:18;5.83;;;1.93;;
70929;SDS011;58588;48.102;19.682;2023-03-23T14:27:26;6.80;;;2.10;;
70929;SDS011;58588;48.102;19.682;2023-03-23T14:30:35;5.80;;;2.10;;
70929;SDS011;58588;48.102;19.682;2023-03-23T14:33:38;5.25;;;1.90;;
70929;SDS011;58588;48.102;19.682;2023-03-23T14:36:45;5.60;;;2.10;;
70929;SDS011;58588;48.102;19.682;2023-03-23T14:39:54;5.33;;;1.83;;
70929;SDS011;58588;48.102;19.682;2023-03-23T14:43:05;5.32;;;1.90;;
70929;SDS011;58588;48.102;19.682;2023-03-23T14:46:07;9.38;;;2.33;;
70929;SDS011;58588;48.102;19.682;2023-03-23T14:49:13;8.05;;;2.00;;
70929;SDS011;58588;48.102;19.682;2023-03-23T14:52:18;5.30;;;1.92;;
70929;SDS011;58588;48.102;19.682;2023-03-23T14:55:23;7.50;;;2.10;;
70929;SDS011;58588;48.102;19.682;2023-03-23T14:58:28;7.47;;;2.40;;
70929;SDS011;58588;48.102;19.682;2023-03-23T15:01:30;5.60;;;2.00;;
70929;SDS011;58588;48.102;19.682;2023-03-23T15:04:35;6.18;;;2.00;;
70929;SDS011;58588;48.102;19.682;2023-03-23T15:07:37;6.65;;;2.20;;
70929;SDS011;58588;48.102;19.682;2023-03-23T15:10:41;7.23;;;2.10;;
70929;SDS011;58588;48.102;19.682;2023-03-23T15:13:45;6.40;;;2.20;;
70929;SDS011;58588;48.102;19.682;2023-03-23T15:16:49;7.45;;;2.58;;
70929;SDS011;58588;48.102;19.682;2023-03-23T15:19:55;7.50;;;2.08;;
70929;SDS011;58588;48.102;19.682;2023-03-23T15:23:04;7.05;;;2.30;;
70929;SDS011;58588;48.102;19.682;2023-03-23T15:26:23;6.33;;;2.23;;
70929;SDS011;58588;48.102;19.682;2023-03-23T15:29:45;9.02;;;2.17;;
70929;SDS011;58588;48.102;19.682;2023-03-23T15:32:49;7.95;;;2.47;;
70929;SDS011;58588;48.102;19.682;2023-03-23T15:35:55;8.63;;;2.20;;
70929;SDS011;58588;48.102;19.682;2023-03-23T15:38:58;6.88;;;2.20;;
70929;SDS011;58588;48.102;19.682;2023-03-23T15:42:01;6.67;;;2.33;;
70929;SDS011;58588;48.102;19.682;2023-03-23T15:45:19;9.20;;;2.42;;
70929;SDS011;58588;48.102;19.682;2023-03-23T15:48:25;6.70;;;2.40;;
70929;SDS011;58588;48.102;19.682;2023-03-23T15:51:29;7.45;;;2.30;;
70929;SDS011;58588;48.102;19.682;2023-03-23T15:54:32;7.32;;;2.22;;
70929;SDS011;58588;48.102;19.682;2023-03-23T15:57:34;6.50;;;2.13;;
70929;SDS011;58588;48.102;19.682;2023-03-23T16:00:38;5.72;;;2.20;;
70929;SDS011;58588;48.102;19.682;2023-03-23T16:03:42;6.63;;;2.20;;
70929;SDS011;58588;48.102;19.682;2023-03-23T16:06:48;7.93;;;2.50;;
70929;SDS011;58588;48.102;19.682;2023-03-23T16:09:52;5.38;;;2.00;;
70929;SDS011;58588;48.102;19.682;2023-03-23T16:12:54;5.70;;;2.03;;
70929;SDS011;58588;48.102;19.682;2023-03-23T16:15:58;6.82;;;2.60;;
70929;SDS011;58588;48.102;19.682;2023-03-23T16:19:00;7.93;;;2.53;;
70929;SDS011;58588;48.102;19.682;2023-03-23T16:22:02;7.90;;;2.13;;
70929;SDS011;58588;48.102;19.682;2023-03-23T16:25:04;7.70;;;2.15;;
70929;SDS011;58588;48.102;19.682;2023-03-23T16:28:08;5.57;;;2.07;;
70929;SDS011;58588;48.102;19.682;2023-03-23T16:31:13;6.68;;;2.10;;
70929;SDS011;58588;48.102;19.682;2023-03-23T16:34:15;10.82;;;2.53;;
70929;SDS011;58588;48.102;19.682;2023-03-23T16:37:17;13.15;;;7.80;;
70929;SDS011;58588;48.102;19.682;2023-03-23T16:40:21;58.88;;;50.15;;
70929;SDS011;58588;48.102;19.682;2023-03-23T16:43:23;30.97;;;19.83;;
70929;SDS011;58588;48.102;19.682;2023-03-23T16:46:27;20.20;;;12.88;;
70929;SDS011;58588;48.102;19.682;2023-03-23T16:49:32;15.45;;;8.70;;
70929;SDS011;58588;48.102;19.682;2023-03-23T16:52:34;12.15;;;7.50;;
70929;SDS011;58588;48.102;19.682;2023-03-23T16:55:37;9.73;;;5.38;;
70929;SDS011;58588;48.102;19.682;2023-03-23T16:58:40;17.07;;;6.83;;
70929;SDS011;58588;48.102;19.682;2023-03-23T17:01:43;17.90;;;8.80;;
70929;SDS011;58588;48.102;19.682;2023-03-23T17:04:45;22.20;;;9.50;;
70929;SDS011;58588;48.102;19.682;2023-03-23T17:07:47;19.90;;;8.55;;
70929;SDS011;58588;48.102;19.682;2023-03-23T17:10:50;41.07;;;18.27;;
70929;SDS011;58588;48.102;19.682;2023-03-23T17:13:52;17.07;;;7.57;;
70929;SDS011;58588;48.102;19.682;2023-03-23T17:16:56;14.95;;;5.80;;
70929;SDS011;58588;48.102;19.682;2023-03-23T17:19:58;26.73;;;12.52;;
70929;SDS011;58588;48.102;19.682;2023-03-23T17:23:01;36.13;;;17.23;;
70929;SDS011;58588;48.102;19.682;2023-03-23T17:26:03;28.53;;;14.13;;
70929;SDS011;58588;48.102;19.682;2023-03-23T17:29:06;27.97;;;10.93;;
70929;SDS011;58588;48.102;19.682;2023-03-23T17:32:10;19.75;;;10.05;;
70929;SDS011;58588;48.102;19.682;2023-03-23T17:35:15;17.98;;;9.38;;
70929;SDS011;58588;48.102;19.682;2023-03-23T17:38:18;20.85;;;9.98;;
70929;SDS011;58588;48.102;19.682;2023-03-23T17:41:20;18.00;;;8.17;;
70929;SDS011;58588;48.102;19.682;2023-03-23T17:44:23;19.53;;;8.63;;
70929;SDS011;58588;48.102;19.682;2023-03-23T17:47:26;18.00;;;8.70;;
70929;SDS011;58588;48.102;19.682;2023-03-23T17:50:29;18.13;;;9.95;;
70929;SDS011;58588;48.102;19.682;2023-03-23T17:53:31;20.52;;;10.40;;
70929;SDS011;58588;48.102;19.682;2023-03-23T17:56:35;21.00;;;9.73;;
70929;SDS011;58588;48.102;19.682;2023-03-23T17:59:37;18.67;;;9.10;;
70929;SDS011;58588;48.102;19.682;2023-03-23T18:02:41;20.58;;;9.07;;
70929;SDS011;58588;48.102;19.682;2023-03-23T18:05:43;15.05;;;6.70;;
70929;SDS011;58588;48.102;19.682;2023-03-23T18:08:45;16.70;;;6.80;;
70929;SDS011;58588;48.102;19.682;2023-03-23T18:11:47;18.80;;;9.20;;
70929;SDS011;58588;48.102;19.682;2023-03-23T18:14:50;18.03;;;8.33;;
70929;SDS011;58588;48.102;19.682;2023-03-23T18:17:53;19.88;;;9.85;;
70929;SDS011;58588;48.102;19.682;2023-03-23T18:20:56;27.50;;;11.85;;
70929;SDS011;58588;48.102;19.682;2023-03-23T18:24:00;29.50;;;14.18;;